Time;durP1;ratioP1;P1;durP2;ratioP2;P2;SDS_P1;SDS_P2;PMS_P1;PMS_P2;Temp;Humidity;BMP_temperature;BMP_pressure;BME280_temperature;BME280_humidity;BME280_pressure;Samples;Min_cycle;Max_cycle;Signal;HPM_P1;HPM_P2
2021/01/16 00:01:24;;;;;;;8.58;6.45;;;;;;;18.78;34.34;98896.27;1769608;79;21156;-9
2021/01/16 00:03:55;;;;;;;9.30;6.55;;;;;;;18.80;34.34;98893.00;1778583;80;21154;-9
2021/01/16 00:06:28;;;;;;;9.65;6.67;;;;;;;18.82;34.34;98895.05;1785144;80;21592;-9
2021/01/16 00:08:56;;;;;;;8.10;6.42;;;;;;;18.84;34.32;98897.63;1783271;80;21187;-9
2021/01/16 00:11:27;;;;;;;7.33;6.15;;;;;;;18.86;34.32;98893.89;1730306;81;21168;-9
2021/01/16 00:13:54;;;;;;;8.10;6.50;;;;;;;18.87;34.34;98895.56;1753244;81;21627;-10
2021/01/16 00:16:22;;;;;;;8.68;6.45;;;;;;;18.89;34.38;98898.11;1778109;80;21174;-9
2021/01/16 00:18:50;;;;;;;9.35;6.45;;;;;;;18.91;34.34;98890.84;1744418;81;21185;-9
2021/01/16 00:21:18;;;;;;;8.55;6.28;;;;;;;18.93;34.34;98888.92;1777575;80;22167;-9
2021/01/16 00:23:45;;;;;;;8.23;6.50;;;;;;;18.93;34.38;98892.42;1779330;80;21129;-9
2021/01/16 00:26:16;;;;;;;8.20;5.75;;;;;;;18.94;34.40;98888.77;1784340;80;21699;-9
2021/01/16 00:28:44;;;;;;;7.42;6.10;;;;;;;18.98;34.41;98892.53;1740303;80;21172;-9
2021/01/16 00:31:15;;;;;;;7.47;6.58;;;;;;;19.01;34.38;98896.30;1770729;80;21577;-9
2021/01/16 00:33:47;;;;;;;7.78;5.95;;;;;;;19.01;34.37;98886.47;1768545;80;21202;-9
2021/01/16 00:36:17;;;;;;;7.58;6.58;;;;;;;19.04;34.37;98896.05;1749751;80;21632;-9
2021/01/16 00:38:48;;;;;;;7.12;6.05;;;;;;;19.05;34.38;98901.27;1758769;80;21111;-10
2021/01/16 00:41:19;;;;;;;;;;;;;;;19.08;34.32;98909.03;1758971;81;21164;-9
2021/01/16 00:43:53;;;;;;;7.35;5.72;;;;;;;19.08;34.29;98905.02;1784124;79;20515;-9
2021/01/16 00:46:22;;;;;;;6.50;5.58;;;;;;;19.11;34.23;98908.78;1766155;80;21658;-9
2021/01/16 00:48:49;;;;;;;7.70;5.67;;;;;;;19.12;34.25;98900.30;1749190;81;21178;-9
2021/01/16 00:51:20;;;;;;;7.12;5.97;;;;;;;19.11;34.26;98899.45;1769339;80;21622;-9
2021/01/16 00:53:51;;;;;;;6.60;5.55;;;;;;;19.12;34.28;98901.63;1754862;80;21158;-10
2021/01/16 00:56:19;;;;;;;7.55;6.00;;;;;;;19.13;34.26;98896.64;1784834;80;21142;-9
2021/01/16 00:58:54;;;;;;;7.03;5.67;;;;;;;19.13;34.23;98895.30;1732367;80;22010;-9
2021/01/16 01:01:41;;;;;;;6.95;6.25;;;;;;;19.18;34.22;98899.81;1823871;76;27806;-9
2021/01/16 01:04:11;;;;;;;6.17;5.58;;;;;;;19.13;34.30;98905.97;1801884;77;21207;-9
2021/01/16 01:06:40;;;;;;;8.28;5.70;;;;;;;19.17;34.21;98909.27;1857527;77;21346;-9
2021/01/16 01:09:08;;;;;;;8.78;6.05;;;;;;;19.18;34.21;98910.94;1826102;77;21564;-9
2021/01/16 01:11:35;;;;;;;7.00;5.45;;;;;;;19.18;34.22;98914.94;1820928;78;21124;-9
2021/01/16 01:14:04;;;;;;;8.50;5.30;;;;;;;19.18;34.25;98914.48;1776926;78;21097;-9
2021/01/16 01:16:31;;;;;;;7.17;5.92;;;;;;;19.19;34.23;98926.83;1827030;76;21184;-9
2021/01/16 01:19:02;;;;;;;7.10;5.85;;;;;;;19.19;34.23;98918.83;1785822;78;22182;-9
2021/01/16 01:21:29;;;;;;;6.28;5.50;;;;;;;19.20;34.22;98918.33;1823814;77;21197;-9
2021/01/16 01:24:03;;;;;;;7.75;5.97;;;;;;;19.19;34.27;98916.16;1808854;77;21209;-8
2021/01/16 01:26:30;;;;;;;6.05;5.22;;;;;;;19.20;34.28;98919.66;1827071;77;21139;-9
2021/01/16 01:28:57;;;;;;;7.15;5.55;;;;;;;19.20;34.31;98918.33;1859161;76;21161;-9
2021/01/16 01:31:28;;;;;;;6.20;5.17;;;;;;;19.19;34.34;98918.83;1857437;77;21261;-9
2021/01/16 01:34:02;;;;;;;6.65;5.33;;;;;;;19.19;34.37;98912.16;1826321;77;21603;-9
2021/01/16 01:36:29;;;;;;;6.53;5.20;;;;;;;19.20;34.37;98912.53;1857432;77;21102;-9
2021/01/16 01:39:01;;;;;;;5.40;4.85;;;;;;;19.20;34.40;98908.53;1858300;77;21157;-8
2021/01/16 01:41:28;;;;;;;5.90;5.30;;;;;;;19.20;34.43;98909.86;1819466;78;21678;-9
2021/01/16 01:43:56;;;;;;;5.62;4.95;;;;;;;19.20;34.46;98917.86;1796337;77;21162;-9
2021/01/16 01:46:26;;;;;;;5.75;5.15;;;;;;;19.20;34.46;98915.20;1826905;77;21090;-9
2021/01/16 01:49:00;;;;;;;6.15;4.85;;;;;;;19.21;34.49;98919.55;1818317;77;21134;-8
2021/01/16 01:51:31;;;;;;;7.30;5.37;;;;;;;19.21;34.51;98916.88;1850543;76;21138;-8
2021/01/16 01:54:02;;;;;;;5.53;5.03;;;;;;;19.21;34.49;98919.55;1787207;77;21177;-8
2021/01/16 01:56:29;;;;;;;6.75;5.30;;;;;;;19.21;34.50;98914.20;1791459;77;21180;-8
2021/01/16 01:59:01;;;;;;;6.42;5.03;;;;;;;19.21;34.51;98912.88;1798150;77;21214;-8
2021/01/16 02:01:32;;;;;;;9.93;5.53;;;;;;;19.21;34.55;98914.20;1801250;77;21578;-8
2021/01/16 02:03:59;;;;;;;5.45;4.90;;;;;;;19.21;34.54;98914.70;1730907;80;21231;-8
2021/01/16 02:06:30;;;;;;;6.00;5.40;;;;;;;19.20;34.57;98920.53;1787899;80;21188;-8
2021/01/16 02:09:01;;;;;;;6.00;5.03;;;;;;;19.20;34.59;98917.86;1777569;78;21381;-8
2021/01/16 02:11:29;;;;;;;7.20;4.92;;;;;;;19.21;34.61;98918.70;1758614;78;21176;-8
2021/01/16 02:13:59;;;;;;;5.15;4.58;;;;;;;19.21;34.63;98927.54;1772003;80;21174;-8
2021/01/16 02:16:39;;;;;;;6.03;4.80;;;;;;;19.22;34.62;98937.25;1741270;80;21660;-8
2021/01/16 02:19:08;;;;;;;5.30;4.62;;;;;;;19.22;34.60;98945.25;1782482;80;21203;-8
2021/01/16 02:21:42;;;;;;;6.15;4.58;;;;;;;19.22;34.62;98935.92;1781771;80;21167;-8
2021/01/16 02:24:18;;;;;;;7.75;5.10;;;;;;;19.22;34.58;98939.92;1764035;79;21212;-8
2021/01/16 02:27:26;;;;;;;4.95;4.33;;;;;;;19.22;34.60;98942.59;1735930;81;21214;-9
2021/01/16 02:29:53;;;;;;;5.05;4.53;;;;;;;19.20;34.63;98937.87;1762853;78;21550;-8
2021/01/16 02:32:25;;;;;;;5.15;4.62;;;;;;;19.22;34.63;98947.08;1749054;80;21154;-8
2021/01/16 02:34:56;;;;;;;4.67;4.28;;;;;;;19.21;34.63;98946.21;1765109;79;21109;-8
2021/01/16 02:37:57;;;;;;;5.80;4.70;;;;;;;19.21;34.65;98948.87;1789275;78;21169;-8
2021/01/16 02:40:36;;;;;;;5.28;4.78;;;;;;;19.21;34.70;98951.55;1725023;80;21148;-8
2021/01/16 02:43:25;;;;;;;7.00;4.80;;;;;;;19.21;34.71;98945.38;1742339;78;21155;-8
2021/01/16 02:46:23;;;;;;;5.00;4.42;;;;;;;19.21;34.76;98944.88;1785903;80;21125;-8
2021/01/16 02:49:28;;;;;;;5.17;4.53;;;;;;;19.21;34.76;98946.70;1796653;78;21195;-8
2021/01/16 02:52:09;;;;;;;5.20;4.70;;;;;;;19.19;34.78;98940.16;1819159;78;21125;-8
2021/01/16 02:54:42;;;;;;;5.28;4.60;;;;;;;19.19;34.79;98940.66;1788120;80;21880;-8
2021/01/16 02:57:13;;;;;;;6.30;4.37;;;;;;;19.18;34.81;98945.15;1797637;78;21192;-9
2021/01/16 02:59:49;;;;;;;4.60;4.20;;;;;;;19.18;34.83;98942.48;1751770;80;21146;-8
2021/01/16 03:02:18;;;;;;;5.42;4.58;;;;;;;19.18;34.86;98945.61;1746380;78;22142;-9
2021/01/16 03:04:46;;;;;;;4.53;4.10;;;;;;;19.17;34.87;98944.77;1776413;80;21080;-9
2021/01/16 03:07:18;;;;;;;4.50;4.10;;;;;;;19.17;34.89;98947.44;1764486;79;21151;-9
2021/01/16 03:09:46;;;;;;;7.08;4.75;;;;;;;19.16;34.92;98952.39;1794250;78;21133;-9
2021/01/16 03:12:13;;;;;;;5.00;4.50;;;;;;;19.16;34.93;98945.73;1811242;78;21596;-9
2021/01/16 03:14:51;;;;;;;5.08;4.58;;;;;;;19.16;34.96;98948.39;1778694;78;21385;-9
2021/01/16 03:17:19;;;;;;;4.90;4.00;;;;;;;19.17;35.02;98947.94;1824581;78;21125;-9
2021/01/16 03:19:48;;;;;;;4.60;4.15;;;;;;;19.16;35.02;98952.89;1781589;79;21201;-9
2021/01/16 03:22:23;;;;;;;5.08;4.10;;;;;;;19.16;35.03;98965.73;1814392;78;21150;-9
2021/01/16 03:24:56;;;;;;;4.85;4.35;;;;;;;19.17;35.05;98966.59;1823052;78;21185;-9
2021/01/16 03:27:27;;;;;;;4.70;4.17;;;;;;;19.16;35.08;98963.56;1793097;78;21615;-9
2021/01/16 03:29:57;;;;;;;4.40;4.00;;;;;;;19.16;35.12;98963.06;1794079;78;21177;-9
2021/01/16 03:32:25;;;;;;;4.75;4.15;;;;;;;19.16;35.13;98963.06;1794058;78;21153;-8
2021/01/16 03:34:55;;;;;;;4.90;4.40;;;;;;;19.15;35.18;98957.39;1796776;79;21139;-9
2021/01/16 03:37:24;;;;;;;4.47;3.95;;;;;;;19.15;35.16;98954.72;1814181;78;21113;-9
2021/01/16 03:39:51;;;;;;;6.17;4.17;;;;;;;19.16;35.16;98956.39;1793329;78;21646;-9
2021/01/16 03:42:22;;;;;;;4.35;3.95;;;;;;;19.16;35.20;98953.73;1794207;78;21118;-9
2021/01/16 03:44:50;;;;;;;4.42;4.03;;;;;;;19.15;35.23;98962.72;1812640;78;21575;-9
2021/01/16 03:47:20;;;;;;;4.62;4.03;;;;;;;19.15;35.25;98956.05;1779858;78;21648;-9
2021/01/16 03:49:47;;;;;;;4.33;3.92;;;;;;;19.15;35.25;98961.39;1749031;80;21153;-9
2021/01/16 03:52:28;;;;;;;4.08;3.70;;;;;;;19.14;35.25;98959.67;1750525;80;21473;-9
2021/01/16 03:54:56;;;;;;;5.12;4.30;;;;;;;19.15;35.27;98956.52;1767265;80;21117;-9
2021/01/16 03:57:24;;;;;;;4.35;3.95;;;;;;;19.14;35.30;98965.02;1735552;81;21582;-9
2021/01/16 03:59:52;;;;;;;4.30;3.90;;;;;;;19.14;35.31;98969.50;1744613;78;21179;-9
2021/01/16 04:02:20;;;;;;;3.85;3.55;;;;;;;19.12;35.32;98963.80;1801993;78;21163;-9
2021/01/16 04:04:51;;;;;;;4.00;3.65;;;;;;;19.13;35.38;98971.30;1793511;79;21445;-9
2021/01/16 04:07:18;;;;;;;4.70;3.75;;;;;;;19.12;35.40;98978.95;1728071;81;21151;-9
2021/01/16 04:09:46;;;;;;;4.35;3.95;;;;;;;19.13;35.42;98976.63;1766878;78;21104;-9
2021/01/16 04:12:13;;;;;;;4.50;4.10;;;;;;;19.13;35.40;98987.30;1791880;78;21801;-9
2021/01/16 04:14:42;;;;;;;5.20;4.08;;;;;;;19.12;35.45;98985.63;1771055;79;21590;-9
2021/01/16 04:17:15;;;;;;;;;;;;;;;19.12;35.45;98981.63;1776376;79;21371;-9
2021/01/16 04:19:43;;;;;;;4.08;3.67;;;;;;;19.12;35.47;98990.46;1803579;79;20249;-9
2021/01/16 04:22:14;;;;;;;4.03;3.52;;;;;;;19.13;35.47;98996.63;1772859;79;21614;-9
2021/01/16 04:24:42;;;;;;;4.35;3.87;;;;;;;19.12;35.50;98994.95;1753768;79;21154;-9
2021/01/16 04:27:14;;;;;;;3.58;3.30;;;;;;;19.11;35.46;98995.91;1771400;79;21585;-9
2021/01/16 04:29:44;;;;;;;4.28;3.87;;;;;;;19.11;35.50;98995.91;1772956;79;21153;-9
2021/01/16 04:32:15;;;;;;;4.25;3.75;;;;;;;19.11;35.50;99002.58;1822940;78;21107;-9
2021/01/16 04:34:44;;;;;;;4.47;3.90;;;;;;;19.09;35.53;99001.86;1788344;79;21649;-9
2021/01/16 04:37:11;;;;;;;5.17;3.83;;;;;;;19.08;35.56;99001.02;1772671;79;21206;-9
2021/01/16 04:39:40;;;;;;;4.92;3.95;;;;;;;19.08;35.58;99000.14;1797286;79;21607;-9
2021/01/16 04:42:14;;;;;;;4.70;3.58;;;;;;;19.07;35.60;98994.47;1757500;79;21211;-9
2021/01/16 04:44:44;;;;;;;4.30;3.90;;;;;;;19.08;35.61;99000.14;1750366;79;21632;-9
2021/01/16 04:47:23;;;;;;;4.10;3.80;;;;;;;19.07;35.61;99002.47;1787468;79;21168;-9
2021/01/16 04:49:53;;;;;;;4.33;3.92;;;;;;;19.07;35.60;98991.31;1800566;79;21093;-9
2021/01/16 04:52:27;;;;;;;4.15;3.75;;;;;;;19.06;35.62;98996.30;1821135;78;21132;-8
2021/01/16 04:54:55;;;;;;;4.33;3.75;;;;;;;19.06;35.66;99006.09;1798227;78;21223;-9
2021/01/16 04:57:25;;;;;;;4.12;3.83;;;;;;;19.07;35.66;99018.47;1790131;79;21139;-9
2021/01/16 04:59:53;;;;;;;4.83;3.37;;;;;;;19.06;35.69;99026.09;1815909;78;21120;-9
2021/01/16 05:02:24;;;;;;;4.25;3.85;;;;;;;19.05;35.71;99020.41;1737102;79;21249;-9
2021/01/16 05:04:55;;;;;;;4.58;4.15;;;;;;;19.05;35.74;99021.74;1775458;80;21120;-9
2021/01/16 05:07:24;;;;;;;3.52;3.22;;;;;;;19.03;35.75;99016.53;1784610;78;22147;-9
2021/01/16 05:09:51;;;;;;;3.75;3.45;;;;;;;19.04;35.77;99033.36;1802953;78;21200;-8
2021/01/16 05:12:34;;;;;;;3.77;3.33;;;;;;;19.04;35.77;99032.87;1765923;80;21648;-9
2021/01/16 05:15:09;;;;;;;5.65;3.55;;;;;;;19.04;35.77;99030.70;1781375;78;21136;-9
2021/01/16 05:17:41;;;;;;;3.90;3.45;;;;;;;19.04;35.82;99029.36;1772664;78;21219;-9
2021/01/16 05:20:10;;;;;;;4.45;3.80;;;;;;;19.04;35.99;99042.20;1776971;79;21182;-9
2021/01/16 05:22:38;;;;;;;4.15;3.75;;;;;;;19.04;36.04;99040.03;1767467;79;21653;-9
2021/01/16 05:25:08;;;;;;;4.28;3.70;;;;;;;19.06;36.10;99045.63;1789465;79;21148;-9
2021/01/16 05:27:37;;;;;;;4.28;3.80;;;;;;;19.11;36.14;99046.58;1766180;79;21173;-9
2021/01/16 05:30:09;;;;;;;4.40;3.45;;;;;;;19.15;36.15;99048.05;1764341;79;21115;-9
2021/01/16 05:32:37;;;;;;;4.33;3.92;;;;;;;19.20;36.16;99045.00;1771192;79;21366;-9
2021/01/16 05:35:25;;;;;;;4.37;3.90;;;;;;;19.23;36.19;99053.64;1747911;81;21633;-9
2021/01/16 05:37:53;;;;;;;3.75;3.45;;;;;;;19.27;36.18;99057.75;1748130;80;21172;-9
2021/01/16 05:40:24;;;;;;;7.80;3.42;;;;;;;19.30;36.32;99054.86;1754675;79;21183;-9
2021/01/16 05:42:52;;;;;;;3.70;3.40;;;;;;;19.31;36.33;99059.20;1754225;80;21152;-9
2021/01/16 05:45:20;;;;;;;4.55;3.60;;;;;;;19.33;36.31;99056.41;1775337;79;21164;-9
2021/01/16 05:47:47;;;;;;;4.22;3.60;;;;;;;19.35;36.28;99056.30;1730570;81;21624;-9
2021/01/16 05:50:15;;;;;;;4.67;3.12;;;;;;;19.37;36.22;99057.05;1711713;81;21144;-9
2021/01/16 05:52:43;;;;;;;3.62;3.17;;;;;;;19.40;36.40;99059.45;1768678;79;21175;-9
2021/01/16 05:55:12;;;;;;;5.53;3.40;;;;;;;19.44;36.36;99058.26;1732413;81;21192;-9
2021/01/16 05:57:41;;;;;;;3.98;3.42;;;;;;;19.48;36.42;99053.03;1768366;79;21174;-9
2021/01/16 06:00:17;;;;;;;11.50;3.70;;;;;;;19.50;36.49;99057.75;1770718;79;21134;-9
2021/01/16 06:02:44;;;;;;;3.85;3.55;;;;;;;19.52;36.57;99061.64;1806957;78;21613;-9
2021/01/16 06:05:18;;;;;;;4.10;3.30;;;;;;;19.53;36.64;99060.19;1777876;79;21208;-9
2021/01/16 06:07:53;;;;;;;3.50;3.20;;;;;;;19.55;36.74;99060.94;1806163;78;21123;-9
2021/01/16 06:10:24;;;;;;;7.80;3.83;;;;;;;19.61;36.78;99067.10;1770223;78;21201;-9
2021/01/16 06:12:52;;;;;;;6.78;4.58;;;;;;;19.64;35.90;99070.87;1799590;78;21682;-9
2021/01/16 06:15:20;;;;;;;6.70;4.90;;;;;;;19.63;33.85;99083.83;1824731;78;21118;-9
2021/01/16 06:17:49;;;;;;;7.10;4.58;;;;;;;19.58;34.01;99087.35;1813264;78;21165;-9
2021/01/16 06:20:21;;;;;;;4.65;4.10;;;;;;;19.59;34.47;99088.22;1781341;79;21204;-9
2021/01/16 06:22:51;;;;;;;6.03;4.60;;;;;;;19.61;34.74;99095.13;1815456;77;21999;-9
2021/01/16 06:25:21;;;;;;;7.92;4.55;;;;;;;19.65;34.90;99092.59;1808034;78;21184;-9
2021/01/16 06:27:50;;;;;;;4.50;3.98;;;;;;;19.70;35.02;99103.38;1792349;78;21575;-9
2021/01/16 06:30:20;;;;;;;4.87;3.87;;;;;;;19.73;35.11;99109.81;1826358;78;22251;-9
2021/01/16 06:32:51;;;;;;;4.92;4.08;;;;;;;19.75;35.22;99105.23;1795208;79;21132;-9
2021/01/16 06:35:20;;;;;;;5.83;3.80;;;;;;;19.80;35.33;99104.38;1747687;80;21622;-9
2021/01/16 06:37:51;;;;;;;4.15;3.75;;;;;;;19.84;35.41;99112.52;1841844;77;21183;-9
2021/01/16 06:40:34;;;;;;;5.03;4.00;;;;;;;19.88;35.51;99117.97;1818476;78;21154;-9
2021/01/16 06:43:08;;;;;;;5.95;4.25;;;;;;;19.91;35.72;99127.07;1747695;78;21195;-8
2021/01/16 06:45:35;;;;;;;4.33;3.92;;;;;;;19.94;35.96;99129.50;1781679;77;21149;-9
2021/01/16 06:48:10;;;;;;;8.20;5.72;;;;;;;19.95;35.98;99125.84;1811238;77;21141;-9
2021/01/16 06:50:38;;;;;;;6.42;4.60;;;;;;;19.98;35.87;99128.27;1812049;77;21213;-9
2021/01/16 06:53:14;;;;;;;7.40;4.25;;;;;;;20.00;35.63;99128.99;1826367;78;21146;-9
2021/01/16 06:55:41;;;;;;;10.20;4.42;;;;;;;20.02;35.48;99131.08;1774097;78;21129;-9
2021/01/16 06:58:21;;;;;;;10.32;4.70;;;;;;;20.05;35.40;99131.30;1806572;78;21159;-9
2021/01/16 07:00:55;;;;;;;11.80;4.40;;;;;;;20.07;35.32;99136.52;1776512;80;22380;-9
2021/01/16 07:03:26;;;;;;;14.20;4.17;;;;;;;20.09;35.22;99143.45;1751189;80;21123;-9
2021/01/16 07:05:57;;;;;;;11.20;4.08;;;;;;;20.11;35.13;99142.00;1797850;78;21108;-9
2021/01/16 07:08:25;;;;;;;7.10;4.03;;;;;;;20.12;35.06;99146.34;1761035;80;21643;-9
2021/01/16 07:10:59;;;;;;;6.53;4.12;;;;;;;20.14;35.05;99152.41;1766138;79;21560;-9
2021/01/16 07:13:28;;;;;;;7.45;4.60;;;;;;;20.16;35.04;99159.84;1757151;80;21376;-9
2021/01/16 07:15:56;;;;;;;4.92;4.05;;;;;;;20.19;34.99;99159.56;1776967;79;21176;-9
2021/01/16 07:18:27;;;;;;;8.60;4.05;;;;;;;20.21;34.96;99161.66;1776250;80;21175;-9
2021/01/16 07:21:01;;;;;;;6.17;3.98;;;;;;;20.23;34.98;99165.05;1795360;78;21597;-9
2021/01/16 07:23:29;;;;;;;6.25;4.35;;;;;;;20.25;34.92;99165.76;1771122;79;21199;-9
2021/01/16 07:25:57;;;;;;;8.83;3.90;;;;;;;20.27;34.88;99170.48;1745774;78;21609;-9
2021/01/16 07:28:25;;;;;;;163.25;123.22;;;;;;;20.31;34.83;99177.77;1772781;79;21221;-9
2021/01/16 07:30:52;;;;;;;322.17;249.75;;;;;;;20.27;33.14;99181.17;1755483;78;21179;-9
2021/01/16 07:33:21;;;;;;;277.62;205.40;;;;;;;20.05;32.09;99174.03;1769611;78;21636;-9
2021/01/16 07:35:52;;;;;;;194.13;141.77;;;;;;;19.90;31.41;99182.77;1782969;79;21179;-9
2021/01/16 07:38:24;;;;;;;198.02;137.45;;;;;;;19.80;31.70;99188.46;1775747;78;21207;-9
2021/01/16 07:40:58;;;;;;;188.32;134.00;;;;;;;19.70;31.13;99179.45;1783945;78;21169;-9
2021/01/16 07:43:47;;;;;;;189.32;132.70;;;;;;;19.60;31.02;99173.50;1794757;78;21566;-9
2021/01/16 07:46:19;;;;;;;170.45;123.75;;;;;;;19.53;31.29;99174.92;1781338;78;21605;-9
2021/01/16 07:48:57;;;;;;;163.55;116.25;;;;;;;19.47;31.44;99191.43;1768833;80;21200;-9
2021/01/16 07:51:35;;;;;;;157.82;111.50;;;;;;;19.42;31.32;99193.60;1799945;79;21185;-9
2021/01/16 07:56:59;;;;;;;135.12;93.62;;;;;;;19.34;30.45;99196.00;1860185;74;24284;2
2021/01/16 07:59:33;;;;;;;123.30;85.75;;;;;;;19.25;30.54;99203.73;1807213;77;21156;-9
2021/01/16 08:02:30;;;;;;;113.62;81.95;;;;;;;19.19;30.23;99206.84;1840638;77;21195;-11
2021/01/16 08:05:10;;;;;;;106.43;75.37;;;;;;;19.12;29.75;99207.80;1842727;76;21018;-8
2021/01/16 08:08:14;;;;;;;99.95;73.02;;;;;;;19.07;29.77;99203.78;1835850;75;21164;-9
2021/01/16 08:10:43;;;;;;;101.50;69.32;;;;;;;19.01;29.40;99205.56;1833600;75;21164;-9
2021/01/16 08:13:14;;;;;;;99.30;67.72;;;;;;;18.94;29.34;99203.34;1816901;77;21149;-9
2021/01/16 08:15:48;;;;;;;91.05;60.98;;;;;;;18.91;29.71;99210.27;1697411;78;21788;-11
2021/01/16 08:18:20;;;;;;;85.87;59.83;;;;;;;18.88;29.27;99209.16;1706984;81;21219;-9
2021/01/16 08:20:49;;;;;;;81.92;56.63;;;;;;;18.85;29.51;99208.04;1768324;77;21133;-13
2021/01/16 08:23:25;;;;;;;78.67;53.33;;;;;;;18.84;29.99;99206.33;1709896;81;21653;-9
2021/01/16 08:25:53;;;;;;;72.05;51.02;;;;;;;18.85;30.44;99216.03;1758611;78;21127;-9
2021/01/16 08:28:29;;;;;;;67.92;47.65;;;;;;;18.85;30.77;99209.37;1746044;79;22179;-9
2021/01/16 08:31:01;;;;;;;64.37;44.67;;;;;;;18.87;30.71;99212.77;1759055;79;21235;-9
2021/01/16 08:33:34;;;;;;;63.55;44.30;;;;;;;18.88;30.78;99211.81;1773830;79;21163;-10
2021/01/16 08:36:18;;;;;;;64.00;43.33;;;;;;;18.88;30.89;99210.48;1764993;79;21168;-9
2021/01/16 08:38:47;;;;;;;54.77;38.38;;;;;;;18.89;31.09;99209.50;1752680;79;21133;-9
2021/01/16 08:41:25;;;;;;;52.38;37.00;;;;;;;18.89;31.43;99213.50;1759726;79;21208;-9
2021/01/16 08:44:00;;;;;;;48.70;34.45;;;;;;;18.91;31.52;99210.27;1769428;78;21188;-9
2021/01/16 08:46:33;;;;;;;46.08;32.88;;;;;;;18.94;31.37;99217.16;1779835;78;21200;-9
2021/01/16 08:51:58;;;;;;;42.00;30.25;;;;;;;18.98;31.55;99203.13;1784177;78;24367;-8
2021/01/16 08:54:25;;;;;;;44.98;29.02;;;;;;;18.96;31.57;99202.39;1739864;80;21672;-8
2021/01/16 08:56:55;;;;;;;39.63;28.27;;;;;;;18.94;31.42;99206.01;1805678;77;21182;-8
2021/01/16 08:59:30;;;;;;;37.58;25.90;;;;;;;18.94;31.62;99196.67;1770234;79;21155;-8
2021/01/16 09:02:18;;;;;;;35.90;25.12;;;;;;;18.96;31.74;99202.39;1737893;81;21239;-8
2021/01/16 09:04:46;;;;;;;33.38;23.75;;;;;;;18.96;31.99;99211.23;1794729;79;21144;-8
2021/01/16 09:07:24;;;;;;;34.40;23.77;;;;;;;18.98;32.04;99219.11;1778205;79;21116;-8
2021/01/16 09:10:04;;;;;;;35.88;24.35;;;;;;;18.99;32.17;99212.34;1751434;79;21433;-8
2021/01/16 09:12:40;;;;;;;50.90;32.95;;;;;;;18.97;29.80;99212.10;1753461;79;21644;-8
2021/01/16 09:15:39;;;;;;;53.30;30.95;;;;;;;18.64;27.58;99210.42;1741433;78;21184;-8
2021/01/16 09:18:14;;;;;;;40.20;25.82;;;;;;;18.40;28.64;99202.89;1750730;80;21121;-8
2021/01/16 09:20:57;;;;;;;35.50;23.92;;;;;;;18.36;29.85;99206.27;1740342;81;21187;-8
2021/01/16 09:23:30;;;;;;;35.92;22.42;;;;;;;18.37;29.06;99195.96;1790695;78;21395;-8
2021/01/16 09:26:09;;;;;;;32.85;19.45;;;;;;;18.28;28.25;99208.13;1750521;80;21224;-8
2021/01/16 09:28:54;;;;;;;36.20;20.05;;;;;;;18.23;26.65;99204.95;1758228;80;21204;-8
2021/01/16 09:31:41;;;;;;;34.92;18.35;;;;;;;18.19;27.46;99201.66;1735835;80;21199;-8
2021/01/16 09:34:17;;;;;;;42.33;21.40;;;;;;;18.17;27.87;99202.70;1785438;80;21180;-8
2021/01/16 09:36:57;;;;;;;27.95;17.80;;;;;;;18.15;30.37;99191.33;1772477;80;22161;-8
2021/01/16 09:39:31;;;;;;;28.67;15.18;;;;;;;18.15;30.48;99196.65;1753130;80;21176;-8
2021/01/16 09:42:06;;;;;;;23.32;14.07;;;;;;;18.15;30.24;99205.48;1779709;80;21635;-8
2021/01/16 09:44:46;;;;;;;21.70;13.28;;;;;;;18.13;28.43;99203.41;1758308;80;21205;-8
2021/01/16 09:47:32;;;;;;;23.30;15.20;;;;;;;18.10;27.82;99203.63;1717504;81;21184;-8
2021/01/16 09:50:06;;;;;;;25.30;15.55;;;;;;;18.05;27.98;99199.11;1756569;80;21447;-8
2021/01/16 09:52:34;;;;;;;23.83;14.95;;;;;;;18.03;28.09;99197.04;1772008;80;21185;-8
2021/01/16 09:55:03;;;;;;;21.37;12.35;;;;;;;18.02;27.45;99207.30;1750128;80;22290;-8
2021/01/16 09:57:43;;;;;;;19.98;12.88;;;;;;;17.99;26.15;99199.56;1727729;82;21244;-8
2021/01/16 10:00:34;;;;;;;16.17;10.88;;;;;;;17.93;25.13;99205.30;1727571;80;21165;-8
2021/01/16 10:03:08;;;;;;;17.37;11.83;;;;;;;17.85;24.30;99206.28;1758161;80;21638;-8
2021/01/16 10:05:41;;;;;;;117.03;87.82;;;;;;;17.74;23.78;99201.23;1740088;80;21563;-8
2021/01/16 10:08:29;;;;;;;421.05;341.77;;;;;;;17.69;24.14;99207.35;1735896;80;21642;-8
2021/01/16 10:11:01;;;;;;;332.27;252.43;;;;;;;17.50;23.19;99200.25;1720420;80;21629;-9
2021/01/16 10:16:16;;;;;;;252.57;190.50;;;;;;;16.96;24.26;99198.55;1772876;80;21492;-10
2021/01/16 10:18:44;;;;;;;190.20;137.82;;;;;;;16.96;24.83;99199.39;1750366;80;21397;-9
2021/01/16 10:21:13;;;;;;;155.20;113.15;;;;;;;17.01;25.00;99197.30;1774330;80;21172;-10
2021/01/16 10:23:42;;;;;;;139.70;98.72;;;;;;;17.04;24.51;99188.26;1750482;80;21168;-9
2021/01/16 10:26:16;;;;;;;125.02;87.35;;;;;;;17.05;24.23;99191.30;1721455;80;21109;-10
2021/01/16 10:28:56;;;;;;;124.25;85.77;;;;;;;17.05;24.02;99193.48;1768400;80;21283;-10
2021/01/16 10:31:26;;;;;;;113.28;82.27;;;;;;;17.08;24.50;99197.75;1721032;80;21201;-10
2021/01/16 10:34:07;;;;;;;110.48;75.47;;;;;;;17.12;25.02;99195.73;1761810;80;21153;-10
2021/01/16 10:36:37;;;;;;;101.72;68.30;;;;;;;17.18;25.82;99200.63;1771940;80;21177;-10
2021/01/16 10:39:14;;;;;;;81.75;57.15;;;;;;;17.23;26.38;99193.19;1744944;80;21197;-9
2021/01/16 10:41:44;;;;;;;69.75;47.90;;;;;;;17.26;26.18;99188.55;1748658;80;22128;-10
2021/01/16 10:44:13;;;;;;;64.45;43.80;;;;;;;17.29;25.91;99182.15;1725396;80;21406;-9
2021/01/16 10:46:51;;;;;;;65.17;44.33;;;;;;;17.30;25.74;99189.18;1773662;80;21157;-9
2021/01/16 10:49:25;;;;;;;56.55;36.73;;;;;;;17.31;26.29;99182.89;1741870;80;21150;-9
2021/01/16 10:52:02;;;;;;;52.23;34.75;;;;;;;17.32;25.83;99184.60;1778189;78;21570;-8
2021/01/16 10:54:34;;;;;;;53.20;35.58;;;;;;;17.32;25.54;99184.60;1758198;80;21191;-14
2021/01/16 10:57:06;;;;;;;46.23;31.40;;;;;;;17.33;26.04;99186.32;1778851;80;21485;-9
2021/01/16 10:59:38;;;;;;;53.70;32.53;;;;;;;17.33;26.82;99186.78;1739484;79;21152;-10
2021/01/16 11:02:15;;;;;;;48.17;30.12;;;;;;;17.32;27.82;99181.94;1770207;79;21199;-10
2021/01/16 11:04:48;;;;;;;43.70;28.67;;;;;;;17.24;27.21;99181.12;1793742;79;21159;-10
2021/01/16 11:07:29;;;;;;;48.25;30.37;;;;;;;17.23;26.54;99183.88;1776761;80;21210;-8
2021/01/16 11:10:11;;;;;;;46.15;28.10;;;;;;;17.22;26.17;99179.54;1753232;80;21645;-9
2021/01/16 11:12:39;;;;;;;34.15;23.27;;;;;;;17.20;25.38;99178.31;1748534;80;21803;-9
2021/01/16 11:15:28;;;;;;;35.45;22.27;;;;;;;17.16;24.68;99183.92;1796508;78;21148;-10
2021/01/16 11:18:01;;;;;;;34.50;22.20;;;;;;;17.11;24.10;99179.40;1739425;79;21180;-10
2021/01/16 11:20:39;;;;;;;30.37;20.75;;;;;;;17.05;24.08;99184.17;1775414;78;21205;-10
2021/01/16 11:23:31;;;;;;;34.25;19.70;;;;;;;17.04;24.67;99181.12;1773572;79;21195;-9
2021/01/16 11:26:09;;;;;;;28.85;18.37;;;;;;;17.04;24.43;99173.16;1781146;78;22246;-10
2021/01/16 11:28:56;;;;;;;28.10;18.00;;;;;;;17.03;24.02;99176.78;1751933;80;21676;-10
2021/01/16 11:31:33;;;;;;;50.80;28.87;;;;;;;17.01;24.47;99174.72;1728219;80;21247;-9
2021/01/16 11:34:19;;;;;;;46.18;27.73;;;;;;;16.83;24.78;99176.75;1765597;80;21434;-9
2021/01/16 11:36:59;;;;;;;49.20;27.75;;;;;;;16.65;24.16;99181.45;1748175;80;21214;-7
2021/01/16 11:39:53;;;;;;;38.98;22.62;;;;;;;16.60;24.23;99180.90;1780431;80;21181;-8
2021/01/16 11:42:21;;;;;;;36.75;19.67;;;;;;;16.60;25.92;99184.88;1758373;80;21153;-8
2021/01/16 11:45:00;;;;;;;31.62;17.37;;;;;;;16.63;29.00;99184.69;1762885;80;21726;-8
2021/01/16 11:47:29;;;;;;;29.80;17.25;;;;;;;16.73;37.51;99182.29;1774770;79;21360;-8
2021/01/16 11:49:59;;;;;;;31.95;17.27;;;;;;;16.94;39.02;99181.85;1771170;79;21659;-8
2021/01/16 11:52:27;;;;;;;33.25;17.57;;;;;;;17.15;38.82;99180.91;1779633;79;21199;-8
2021/01/16 11:54:56;;;;;;;31.57;17.42;;;;;;;17.31;37.59;99173.58;1778522;80;21165;-8
2021/01/16 11:57:24;;;;;;;27.13;15.63;;;;;;;17.45;36.52;99166.02;1705490;81;21133;-9
2021/01/16 11:59:55;;;;;;;28.70;16.17;;;;;;;17.57;36.05;99167.81;1728697;81;21577;-9
2021/01/16 12:02:23;;;;;;;27.48;15.13;;;;;;;17.64;35.95;99167.75;1753996;80;21152;-9
2021/01/16 12:04:51;;;;;;;29.52;14.65;;;;;;;17.67;35.86;99160.05;1782764;80;21114;-9
2021/01/16 12:07:20;;;;;;;25.72;14.58;;;;;;;17.74;35.72;99163.14;1772027;80;21241;-9
2021/01/16 12:09:48;;;;;;;22.75;13.72;;;;;;;17.80;35.43;99162.23;1749208;81;21643;-11